sensor_id;sensor_type;location;lat;lon;timestamp;P1;durP1;ratioP1;P2;durP2;ratioP2
72123;SDS011;63818;37.134;-8.548;2023-04-01T00:04:16;18.1;;;6.6;;
72123;SDS011;63818;37.134;-8.548;2023-04-01T00:09:04;17.6;;;6.4;;
72123;SDS011;63818;37.134;-8.548;2023-04-01T00:13:50;18.0;;;6.2;;
72123;SDS011;63818;37.134;-8.548;2023-04-01T00:18:39;21.1;;;6.5;;
72123;SDS011;63818;37.134;-8.548;2023-04-01T00:23:25;24.5;;;6.9;;
72123;SDS011;63818;37.134;-8.548;2023-04-01T00:28:11;23.6;;;6.9;;
72123;SDS011;63818;37.134;-8.548;2023-04-01T00:32:58;20.7;;;6.4;;
72123;SDS011;63818;37.134;-8.548;2023-04-01T00:37:44;21.6;;;6.0;;
72123;SDS011;63818;37.134;-8.548;2023-04-01T00:42:33;20.4;;;6.3;;
72123;SDS011;63818;37.134;-8.548;2023-04-01T00:47:19;18.5;;;6.4;;
72123;SDS011;63818;37.134;-8.548;2023-04-01T00:52:09;17.9;;;6.3;;
72123;SDS011;63818;37.134;-8.548;2023-04-01T00:56:59;22.9;;;6.3;;
72123;SDS011;63818;37.134;-8.548;2023-04-01T01:01:47;23.7;;;6.1;;
72123;SDS011;63818;37.134;-8.548;2023-04-01T01:06:38;22.2;;;6.3;;
72123;SDS011;63818;37.134;-8.548;2023-04-01T01:11:29;28.4;;;7.0;;
72123;SDS011;63818;37.134;-8.548;2023-04-01T01:16:22;17.5;;;6.9;;
72123;SDS011;63818;37.134;-8.548;2023-04-01T01:22:33;20.3;;;6.3;;
72123;SDS011;63818;37.134;-8.548;2023-04-01T01:27:26;20.5;;;6.3;;
72123;SDS011;63818;37.134;-8.548;2023-04-01T01:32:17;19.3;;;6.6;;
72123;SDS011;63818;37.134;-8.548;2023-04-01T01:37:14;24.7;;;7.1;;
72123;SDS011;63818;37.134;-8.548;2023-04-01T01:42:02;29.3;;;7.9;;
72123;SDS011;63818;37.134;-8.548;2023-04-01T01:46:53;23.9;;;7.6;;
72123;SDS011;63818;37.134;-8.548;2023-04-01T01:51:41;22.9;;;6.9;;
72123;SDS011;63818;37.134;-8.548;2023-04-01T01:56:32;26.3;;;7.4;;
72123;SDS011;63818;37.134;-8.548;2023-04-01T02:01:24;22.1;;;6.9;;
72123;SDS011;63818;37.134;-8.548;2023-04-01T02:06:14;19.8;;;6.3;;
72123;SDS011;63818;37.134;-8.548;2023-04-01T02:11:03;21.9;;;6.6;;
72123;SDS011;63818;37.134;-8.548;2023-04-01T02:15:55;22.0;;;6.5;;
72123;SDS011;63818;37.134;-8.548;2023-04-01T02:20:54;18.7;;;6.2;;
72123;SDS011;63818;37.134;-8.548;2023-04-01T02:25:45;21.1;;;6.6;;
72123;SDS011;63818;37.134;-8.548;2023-04-01T02:30:38;20.4;;;6.6;;
72123;SDS011;63818;37.134;-8.548;2023-04-01T02:35:29;18.9;;;6.4;;
72123;SDS011;63818;37.134;-8.548;2023-04-01T02:40:16;19.7;;;6.3;;
72123;SDS011;63818;37.134;-8.548;2023-04-01T02:45:06;18.6;;;6.1;;
72123;SDS011;63818;37.134;-8.548;2023-04-01T02:49:54;22.5;;;6.6;;
72123;SDS011;63818;37.134;-8.548;2023-04-01T02:54:40;22.3;;;7.0;;
72123;SDS011;63818;37.134;-8.548;2023-04-01T02:59:31;19.0;;;6.8;;
72123;SDS011;63818;37.134;-8.548;2023-04-01T03:04:17;19.3;;;6.3;;
72123;SDS011;63818;37.134;-8.548;2023-04-01T03:09:03;20.7;;;6.2;;
72123;SDS011;63818;37.134;-8.548;2023-04-01T03:13:52;21.0;;;6.5;;
72123;SDS011;63818;37.134;-8.548;2023-04-01T03:18:38;21.3;;;6.6;;
72123;SDS011;63818;37.134;-8.548;2023-04-01T03:23:24;21.8;;;6.5;;
72123;SDS011;63818;37.134;-8.548;2023-04-01T03:28:12;20.3;;;6.2;;
72123;SDS011;63818;37.134;-8.548;2023-04-01T03:32:59;22.5;;;6.0;;
72123;SDS011;63818;37.134;-8.548;2023-04-01T03:37:48;22.9;;;6.0;;
72123;SDS011;63818;37.134;-8.548;2023-04-01T03:42:35;17.6;;;5.9;;
72123;SDS011;63818;37.134;-8.548;2023-04-01T03:47:24;17.2;;;5.7;;
72123;SDS011;63818;37.134;-8.548;2023-04-01T03:52:10;18.0;;;5.7;;
72123;SDS011;63818;37.134;-8.548;2023-04-01T03:56:57;18.5;;;5.8;;
72123;SDS011;63818;37.134;-8.548;2023-04-01T04:01:43;15.2;;;5.2;;
72123;SDS011;63818;37.134;-8.548;2023-04-01T04:06:30;12.2;;;4.9;;
72123;SDS011;63818;37.134;-8.548;2023-04-01T04:11:21;16.6;;;5.9;;
72123;SDS011;63818;37.134;-8.548;2023-04-01T04:16:08;15.5;;;5.9;;
72123;SDS011;63818;37.134;-8.548;2023-04-01T04:20:56;11.0;;;5.2;;
72123;SDS011;63818;37.134;-8.548;2023-04-01T04:25:54;16.8;;;5.6;;
72123;SDS011;63818;37.134;-8.548;2023-04-01T04:30:40;19.7;;;5.8;;
72123;SDS011;63818;37.134;-8.548;2023-04-01T04:35:26;16.0;;;5.4;;
72123;SDS011;63818;37.134;-8.548;2023-04-01T04:40:14;19.0;;;5.5;;
72123;SDS011;63818;37.134;-8.548;2023-04-01T04:45:05;19.4;;;5.8;;
72123;SDS011;63818;37.134;-8.548;2023-04-01T04:49:54;18.5;;;5.8;;
72123;SDS011;63818;37.134;-8.548;2023-04-01T04:54:40;17.9;;;5.5;;
72123;SDS011;63818;37.134;-8.548;2023-04-01T04:59:29;13.7;;;5.4;;
72123;SDS011;63818;37.134;-8.548;2023-04-01T05:04:19;14.1;;;5.9;;
72123;SDS011;63818;37.134;-8.548;2023-04-01T05:09:05;19.0;;;6.6;;
72123;SDS011;63818;37.134;-8.548;2023-04-01T05:13:53;20.8;;;6.4;;
72123;SDS011;63818;37.134;-8.548;2023-04-01T05:18:41;19.7;;;6.1;;
72123;SDS011;63818;37.134;-8.548;2023-04-01T05:23:33;17.4;;;6.1;;
72123;SDS011;63818;37.134;-8.548;2023-04-01T05:28:19;18.0;;;6.2;;
72123;SDS011;63818;37.134;-8.548;2023-04-01T05:33:09;21.2;;;6.3;;
72123;SDS011;63818;37.134;-8.548;2023-04-01T05:37:55;19.4;;;6.6;;
72123;SDS011;63818;37.134;-8.548;2023-04-01T05:42:42;17.4;;;6.4;;
72123;SDS011;63818;37.134;-8.548;2023-04-01T05:47:27;16.6;;;5.7;;
72123;SDS011;63818;37.134;-8.548;2023-04-01T05:52:16;16.2;;;5.5;;
72123;SDS011;63818;37.134;-8.548;2023-04-01T05:57:04;21.2;;;5.9;;
72123;SDS011;63818;37.134;-8.548;2023-04-01T06:01:53;13.6;;;6.2;;
72123;SDS011;63818;37.134;-8.548;2023-04-01T06:06:41;15.8;;;6.5;;
72123;SDS011;63818;37.134;-8.548;2023-04-01T06:11:30;19.2;;;6.5;;
72123;SDS011;63818;37.134;-8.548;2023-04-01T06:16:22;19.1;;;5.9;;
72123;SDS011;63818;37.134;-8.548;2023-04-01T06:21:32;18.2;;;6.0;;
72123;SDS011;63818;37.134;-8.548;2023-04-01T06:26:33;17.7;;;6.2;;
72123;SDS011;63818;37.134;-8.548;2023-04-01T06:31:30;19.1;;;6.2;;
72123;SDS011;63818;37.134;-8.548;2023-04-01T06:36:54;19.9;;;6.4;;
72123;SDS011;63818;37.134;-8.548;2023-04-01T06:42:05;17.5;;;6.3;;
72123;SDS011;63818;37.134;-8.548;2023-04-01T06:47:01;19.1;;;6.6;;
72123;SDS011;63818;37.134;-8.548;2023-04-01T06:51:58;19.9;;;6.3;;
72123;SDS011;63818;37.134;-8.548;2023-04-01T06:56:53;20.2;;;6.1;;
72123;SDS011;63818;37.134;-8.548;2023-04-01T07:01:44;20.9;;;6.5;;
72123;SDS011;63818;37.134;-8.548;2023-04-01T07:06:37;19.3;;;6.8;;
72123;SDS011;63818;37.134;-8.548;2023-04-01T07:11:31;18.9;;;6.6;;
72123;SDS011;63818;37.134;-8.548;2023-04-01T07:16:21;18.4;;;6.4;;
72123;SDS011;63818;37.134;-8.548;2023-04-01T07:21:17;19.9;;;7.5;;
72123;SDS011;63818;37.134;-8.548;2023-04-01T07:26:18;22.2;;;7.5;;
72123;SDS011;63818;37.134;-8.548;2023-04-01T07:31:07;23.0;;;6.6;;
72123;SDS011;63818;37.134;-8.548;2023-04-01T07:36:00;22.3;;;6.6;;
72123;SDS011;63818;37.134;-8.548;2023-04-01T07:40:53;22.0;;;6.7;;
72123;SDS011;63818;37.134;-8.548;2023-04-01T07:45:49;24.3;;;6.8;;
72123;SDS011;63818;37.134;-8.548;2023-04-01T07:50:49;20.7;;;6.8;;
72123;SDS011;63818;37.134;-8.548;2023-04-01T07:55:44;15.4;;;6.8;;
72123;SDS011;63818;37.134;-8.548;2023-04-01T08:00:42;27.1;;;7.3;;
72123;SDS011;63818;37.134;-8.548;2023-04-01T08:05:39;24.0;;;7.5;;
72123;SDS011;63818;37.134;-8.548;2023-04-01T08:10:34;21.0;;;6.5;;
72123;SDS011;63818;37.134;-8.548;2023-04-01T08:15:27;21.8;;;5.9;;
72123;SDS011;63818;37.134;-8.548;2023-04-01T08:20:22;20.4;;;6.0;;
72123;SDS011;63818;37.134;-8.548;2023-04-01T08:25:16;18.2;;;6.4;;
72123;SDS011;63818;37.134;-8.548;2023-04-01T08:30:14;16.0;;;6.3;;
72123;SDS011;63818;37.134;-8.548;2023-04-01T08:35:09;13.8;;;6.2;;
72123;SDS011;63818;37.134;-8.548;2023-04-01T08:40:10;21.6;;;6.3;;
72123;SDS011;63818;37.134;-8.548;2023-04-01T08:45:20;21.0;;;6.4;;
72123;SDS011;63818;37.134;-8.548;2023-04-01T08:50:26;22.2;;;6.6;;
72123;SDS011;63818;37.134;-8.548;2023-04-01T08:55:35;21.0;;;6.4;;
72123;SDS011;63818;37.134;-8.548;2023-04-01T09:00:28;23.6;;;6.6;;
72123;SDS011;63818;37.134;-8.548;2023-04-01T09:12:19;18.0;;;6.1;;
72123;SDS011;63818;37.134;-8.548;2023-04-01T09:17:33;21.6;;;6.4;;
72123;SDS011;63818;37.134;-8.548;2023-04-01T09:22:33;23.6;;;6.1;;
72123;SDS011;63818;37.134;-8.548;2023-04-01T09:27:38;20.9;;;6.2;;
72123;SDS011;63818;37.134;-8.548;2023-04-01T09:32:46;19.9;;;6.8;;
72123;SDS011;63818;37.134;-8.548;2023-04-01T09:37:57;19.8;;;6.3;;
72123;SDS011;63818;37.134;-8.548;2023-04-01T09:44:44;16.9;;;5.9;;
72123;SDS011;63818;37.134;-8.548;2023-04-01T09:49:40;18.7;;;6.2;;
72123;SDS011;63818;37.134;-8.548;2023-04-01T09:54:38;22.6;;;6.4;;
72123;SDS011;63818;37.134;-8.548;2023-04-01T10:00:41;20.2;;;6.3;;
72123;SDS011;63818;37.134;-8.548;2023-04-01T10:07:25;20.5;;;6.5;;
72123;SDS011;63818;37.134;-8.548;2023-04-01T10:13:06;21.1;;;6.6;;
72123;SDS011;63818;37.134;-8.548;2023-04-01T10:38:25;18.5;;;6.4;;
72123;SDS011;63818;37.134;-8.548;2023-04-01T10:44:27;17.4;;;6.1;;
72123;SDS011;63818;37.134;-8.548;2023-04-01T10:51:28;18.9;;;5.9;;
72123;SDS011;63818;37.134;-8.548;2023-04-01T10:56:49;22.9;;;6.4;;
72123;SDS011;63818;37.134;-8.548;2023-04-01T11:16:20;15.1;;;5.8;;
72123;SDS011;63818;37.134;-8.548;2023-04-01T11:26:36;12.7;;;5.6;;
72123;SDS011;63818;37.134;-8.548;2023-04-01T11:31:56;13.1;;;6.0;;
72123;SDS011;63818;37.134;-8.548;2023-04-01T11:36:50;14.5;;;6.3;;
72123;SDS011;63818;37.134;-8.548;2023-04-01T11:41:43;18.2;;;5.9;;
72123;SDS011;63818;37.134;-8.548;2023-04-01T11:46:39;19.9;;;6.4;;
72123;SDS011;63818;37.134;-8.548;2023-04-01T11:51:53;17.0;;;6.5;;
72123;SDS011;63818;37.134;-8.548;2023-04-01T11:56:56;16.5;;;6.4;;
72123;SDS011;63818;37.134;-8.548;2023-04-01T12:01:52;16.0;;;6.4;;
72123;SDS011;63818;37.134;-8.548;2023-04-01T12:06:47;15.7;;;6.3;;
72123;SDS011;63818;37.134;-8.548;2023-04-01T12:11:38;16.9;;;6.4;;
72123;SDS011;63818;37.134;-8.548;2023-04-01T12:16:46;17.0;;;6.8;;
72123;SDS011;63818;37.134;-8.548;2023-04-01T12:21:41;15.6;;;6.3;;
72123;SDS011;63818;37.134;-8.548;2023-04-01T12:26:46;13.5;;;5.4;;
72123;SDS011;63818;37.134;-8.548;2023-04-01T12:31:41;13.0;;;6.2;;
72123;SDS011;63818;37.134;-8.548;2023-04-01T12:36:37;16.0;;;7.1;;
72123;SDS011;63818;37.134;-8.548;2023-04-01T12:41:32;18.5;;;6.8;;
72123;SDS011;63818;37.134;-8.548;2023-04-01T12:46:31;18.2;;;6.0;;
72123;SDS011;63818;37.134;-8.548;2023-04-01T12:51:36;13.1;;;5.6;;
72123;SDS011;63818;37.134;-8.548;2023-04-01T12:56:30;12.4;;;5.5;;
72123;SDS011;63818;37.134;-8.548;2023-04-01T13:01:37;13.2;;;5.5;;
72123;SDS011;63818;37.134;-8.548;2023-04-01T13:06:43;13.6;;;5.6;;
72123;SDS011;63818;37.134;-8.548;2023-04-01T13:11:39;12.1;;;5.4;;
72123;SDS011;63818;37.134;-8.548;2023-04-01T13:16:36;11.2;;;5.2;;
72123;SDS011;63818;37.134;-8.548;2023-04-01T13:21:31;12.1;;;5.0;;
72123;SDS011;63818;37.134;-8.548;2023-04-01T13:26:27;9.9;;;5.1;;
72123;SDS011;63818;37.134;-8.548;2023-04-01T13:31:24;10.4;;;5.3;;
72123;SDS011;63818;37.134;-8.548;2023-04-01T13:36:23;14.4;;;5.5;;
72123;SDS011;63818;37.134;-8.548;2023-04-01T13:41:21;15.9;;;5.7;;
72123;SDS011;63818;37.134;-8.548;2023-04-01T13:46:22;12.7;;;5.6;;
72123;SDS011;63818;37.134;-8.548;2023-04-01T13:51:29;12.3;;;5.3;;
72123;SDS011;63818;37.134;-8.548;2023-04-01T13:56:48;12.1;;;5.0;;
72123;SDS011;63818;37.134;-8.548;2023-04-01T14:01:41;10.6;;;5.1;;
72123;SDS011;63818;37.134;-8.548;2023-04-01T14:06:35;11.9;;;5.2;;
72123;SDS011;63818;37.134;-8.548;2023-04-01T14:11:37;11.2;;;4.9;;
72123;SDS011;63818;37.134;-8.548;2023-04-01T14:16:55;12.5;;;5.3;;
72123;SDS011;63818;37.134;-8.548;2023-04-01T14:21:50;13.0;;;5.5;;
72123;SDS011;63818;37.134;-8.548;2023-04-01T14:26:56;13.2;;;5.5;;
72123;SDS011;63818;37.134;-8.548;2023-04-01T14:31:54;14.9;;;5.5;;
72123;SDS011;63818;37.134;-8.548;2023-04-01T14:36:53;14.2;;;5.4;;
72123;SDS011;63818;37.134;-8.548;2023-04-01T14:41:47;11.6;;;5.4;;
72123;SDS011;63818;37.134;-8.548;2023-04-01T14:46:45;11.5;;;5.2;;
72123;SDS011;63818;37.134;-8.548;2023-04-01T14:53:11;12.3;;;5.2;;
72123;SDS011;63818;37.134;-8.548;2023-04-01T14:58:10;12.0;;;5.6;;
72123;SDS011;63818;37.134;-8.548;2023-04-01T15:03:01;11.1;;;5.6;;
72123;SDS011;63818;37.134;-8.548;2023-04-01T15:08:12;16.1;;;5.4;;
72123;SDS011;63818;37.134;-8.548;2023-04-01T15:13:03;17.4;;;5.4;;
72123;SDS011;63818;37.134;-8.548;2023-04-01T15:17:58;11.9;;;5.4;;
72123;SDS011;63818;37.134;-8.548;2023-04-01T15:22:54;9.8;;;5.1;;
72123;SDS011;63818;37.134;-8.548;2023-04-01T15:27:47;10.2;;;4.9;;
72123;SDS011;63818;37.134;-8.548;2023-04-01T15:32:45;11.2;;;5.0;;
72123;SDS011;63818;37.134;-8.548;2023-04-01T15:37:42;13.8;;;6.0;;
72123;SDS011;63818;37.134;-8.548;2023-04-01T15:42:42;15.2;;;6.0;;
72123;SDS011;63818;37.134;-8.548;2023-04-01T15:47:58;14.4;;;5.1;;
72123;SDS011;63818;37.134;-8.548;2023-04-01T15:52:49;13.7;;;5.5;;
72123;SDS011;63818;37.134;-8.548;2023-04-01T15:57:54;11.5;;;5.9;;
72123;SDS011;63818;37.134;-8.548;2023-04-01T16:02:48;16.3;;;5.9;;
72123;SDS011;63818;37.134;-8.548;2023-04-01T16:07:42;19.0;;;5.9;;
72123;SDS011;63818;37.134;-8.548;2023-04-01T16:12:40;13.1;;;5.7;;
72123;SDS011;63818;37.134;-8.548;2023-04-01T16:18:16;10.8;;;5.6;;
72123;SDS011;63818;37.134;-8.548;2023-04-01T16:23:22;10.8;;;5.5;;
72123;SDS011;63818;37.134;-8.548;2023-04-01T16:28:19;12.1;;;5.4;;
72123;SDS011;63818;37.134;-8.548;2023-04-01T16:33:11;13.0;;;5.4;;
72123;SDS011;63818;37.134;-8.548;2023-04-01T16:38:07;11.2;;;5.4;;
72123;SDS011;63818;37.134;-8.548;2023-04-01T16:43:04;10.2;;;5.3;;
72123;SDS011;63818;37.134;-8.548;2023-04-01T16:47:58;11.5;;;5.3;;
72123;SDS011;63818;37.134;-8.548;2023-04-01T16:52:59;11.8;;;5.3;;
72123;SDS011;63818;37.134;-8.548;2023-04-01T16:57:51;10.8;;;5.1;;
72123;SDS011;63818;37.134;-8.548;2023-04-01T17:02:42;11.1;;;5.2;;
72123;SDS011;63818;37.134;-8.548;2023-04-01T17:07:40;13.7;;;5.5;;
72123;SDS011;63818;37.134;-8.548;2023-04-01T17:12:33;14.0;;;5.7;;
72123;SDS011;63818;37.134;-8.548;2023-04-01T17:18:11;14.5;;;5.5;;
72123;SDS011;63818;37.134;-8.548;2023-04-01T17:23:04;14.5;;;5.4;;
72123;SDS011;63818;37.134;-8.548;2023-04-01T17:27:57;10.7;;;5.2;;
72123;SDS011;63818;37.134;-8.548;2023-04-01T17:32:54;11.8;;;5.4;;
72123;SDS011;63818;37.134;-8.548;2023-04-01T17:37:49;15.2;;;5.6;;
72123;SDS011;63818;37.134;-8.548;2023-04-01T17:42:48;15.2;;;5.6;;
72123;SDS011;63818;37.134;-8.548;2023-04-01T17:47:44;15.1;;;5.5;;
72123;SDS011;63818;37.134;-8.548;2023-04-01T17:52:45;15.5;;;5.5;;
72123;SDS011;63818;37.134;-8.548;2023-04-01T17:57:34;15.9;;;5.8;;
72123;SDS011;63818;37.134;-8.548;2023-04-01T18:02:34;14.5;;;5.9;;
72123;SDS011;63818;37.134;-8.548;2023-04-01T18:07:35;12.5;;;5.9;;
72123;SDS011;63818;37.134;-8.548;2023-04-01T18:12:30;15.3;;;5.8;;
72123;SDS011;63818;37.134;-8.548;2023-04-01T18:17:21;15.2;;;5.6;;
72123;SDS011;63818;37.134;-8.548;2023-04-01T18:22:17;12.0;;;5.7;;
72123;SDS011;63818;37.134;-8.548;2023-04-01T18:27:15;11.8;;;5.8;;
72123;SDS011;63818;37.134;-8.548;2023-04-01T18:32:21;10.2;;;5.4;;
72123;SDS011;63818;37.134;-8.548;2023-04-01T18:37:16;11.4;;;5.3;;
72123;SDS011;63818;37.134;-8.548;2023-04-01T18:42:07;14.7;;;6.0;;
72123;SDS011;63818;37.134;-8.548;2023-04-01T18:47:05;14.4;;;5.8;;
72123;SDS011;63818;37.134;-8.548;2023-04-01T18:51:58;13.4;;;5.4;;
72123;SDS011;63818;37.134;-8.548;2023-04-01T18:57:02;12.3;;;5.8;;
72123;SDS011;63818;37.134;-8.548;2023-04-01T19:01:55;14.0;;;6.6;;
72123;SDS011;63818;37.134;-8.548;2023-04-01T19:06:53;14.2;;;6.5;;
72123;SDS011;63818;37.134;-8.548;2023-04-01T19:11:42;10.2;;;5.6;;
72123;SDS011;63818;37.134;-8.548;2023-04-01T19:16:40;10.5;;;5.5;;
72123;SDS011;63818;37.134;-8.548;2023-04-01T19:21:35;11.8;;;5.7;;
72123;SDS011;63818;37.134;-8.548;2023-04-01T19:26:25;10.8;;;5.5;;
72123;SDS011;63818;37.134;-8.548;2023-04-01T19:31:28;12.0;;;5.5;;
72123;SDS011;63818;37.134;-8.548;2023-04-01T19:36:30;15.5;;;6.0;;
72123;SDS011;63818;37.134;-8.548;2023-04-01T19:41:38;15.1;;;6.2;;
72123;SDS011;63818;37.134;-8.548;2023-04-01T19:46:32;12.7;;;5.8;;
72123;SDS011;63818;37.134;-8.548;2023-04-01T19:51:24;16.0;;;5.9;;
72123;SDS011;63818;37.134;-8.548;2023-04-01T19:56:17;14.6;;;5.9;;
72123;SDS011;63818;37.134;-8.548;2023-04-01T20:01:04;14.8;;;6.1;;
72123;SDS011;63818;37.134;-8.548;2023-04-01T20:06:05;17.1;;;6.2;;
72123;SDS011;63818;37.134;-8.548;2023-04-01T20:11:02;15.2;;;6.2;;
72123;SDS011;63818;37.134;-8.548;2023-04-01T20:16:00;15.4;;;6.4;;
72123;SDS011;63818;37.134;-8.548;2023-04-01T20:20:54;14.5;;;6.0;;
72123;SDS011;63818;37.134;-8.548;2023-04-01T20:25:46;14.3;;;5.7;;
72123;SDS011;63818;37.134;-8.548;2023-04-01T20:30:50;17.2;;;5.6;;
72123;SDS011;63818;37.134;-8.548;2023-04-01T20:35:55;19.8;;;5.5;;
72123;SDS011;63818;37.134;-8.548;2023-04-01T20:40:47;20.1;;;5.7;;
72123;SDS011;63818;37.134;-8.548;2023-04-01T20:45:40;19.7;;;6.0;;
72123;SDS011;63818;37.134;-8.548;2023-04-01T20:50:38;16.2;;;6.0;;
72123;SDS011;63818;37.134;-8.548;2023-04-01T20:56:15;11.9;;;5.8;;
72123;SDS011;63818;37.134;-8.548;2023-04-01T21:01:10;13.4;;;5.7;;
72123;SDS011;63818;37.134;-8.548;2023-04-01T21:12:43;13.5;;;5.4;;
72123;SDS011;63818;37.134;-8.548;2023-04-01T21:17:41;14.8;;;5.9;;
72123;SDS011;63818;37.134;-8.548;2023-04-01T21:22:45;14.2;;;5.8;;
72123;SDS011;63818;37.134;-8.548;2023-04-01T21:27:42;12.4;;;5.3;;
72123;SDS011;63818;37.134;-8.548;2023-04-01T21:32:53;12.1;;;5.4;;
72123;SDS011;63818;37.134;-8.548;2023-04-01T21:37:56;14.9;;;5.7;;
72123;SDS011;63818;37.134;-8.548;2023-04-01T21:42:47;14.3;;;5.5;;
72123;SDS011;63818;37.134;-8.548;2023-04-01T21:47:50;12.3;;;5.3;;
72123;SDS011;63818;37.134;-8.548;2023-04-01T22:01:18;12.9;;;5.2;;
72123;SDS011;63818;37.134;-8.548;2023-04-01T22:06:15;12.2;;;5.4;;
72123;SDS011;63818;37.134;-8.548;2023-04-01T22:11:08;11.9;;;5.3;;
72123;SDS011;63818;37.134;-8.548;2023-04-01T22:16:03;12.6;;;5.1;;
72123;SDS011;63818;37.134;-8.548;2023-04-01T22:20:57;12.7;;;5.4;;
72123;SDS011;63818;37.134;-8.548;2023-04-01T22:25:52;13.2;;;6.1;;
72123;SDS011;63818;37.134;-8.548;2023-04-01T22:30:46;16.8;;;6.1;;
72123;SDS011;63818;37.134;-8.548;2023-04-01T22:35:38;16.6;;;5.7;;
72123;SDS011;63818;37.134;-8.548;2023-04-01T22:40:30;14.1;;;6.3;;
72123;SDS011;63818;37.134;-8.548;2023-04-01T22:45:27;14.1;;;6.6;;
72123;SDS011;63818;37.134;-8.548;2023-04-01T22:50:35;15.4;;;6.0;;
72123;SDS011;63818;37.134;-8.548;2023-04-01T22:55:26;14.9;;;5.8;;
72123;SDS011;63818;37.134;-8.548;2023-04-01T23:00:17;14.0;;;5.9;;
72123;SDS011;63818;37.134;-8.548;2023-04-01T23:05:12;12.8;;;5.9;;
72123;SDS011;63818;37.134;-8.548;2023-04-01T23:10:11;12.0;;;5.9;;
72123;SDS011;63818;37.134;-8.548;2023-04-01T23:15:04;15.8;;;5.8;;
72123;SDS011;63818;37.134;-8.548;2023-04-01T23:19:52;16.2;;;5.7;;
72123;SDS011;63818;37.134;-8.548;2023-04-01T23:24:53;13.5;;;5.4;;
72123;SDS011;63818;37.134;-8.548;2023-04-01T23:29:46;15.2;;;5.1;;
72123;SDS011;63818;37.134;-8.548;2023-04-01T23:34:33;15.7;;;5.5;;
72123;SDS011;63818;37.134;-8.548;2023-04-01T23:39:23;13.9;;;5.5;;
72123;SDS011;63818;37.134;-8.548;2023-04-01T23:44:18;12.9;;;5.1;;
72123;SDS011;63818;37.134;-8.548;2023-04-01T23:49:12;11.5;;;5.1;;
72123;SDS011;63818;37.134;-8.548;2023-04-01T23:54:03;11.8;;;5.1;;
72123;SDS011;63818;37.134;-8.548;2023-04-01T23:58:54;12.2;;;5.0;;
